sensor_id;sensor_type;location;lat;lon;timestamp;pressure;altitude;pressure_sealevel;temperature;humidity
71697;BME280;68167;59.120;37.898;2023-04-15T00:01:03;101705.00;;;0.04;29.96
71697;BME280;68167;59.120;37.898;2023-04-15T00:03:31;101713.41;;;0.07;29.88
71697;BME280;68167;59.120;37.898;2023-04-15T00:05:59;101705.97;;;0.03;29.88
71697;BME280;68167;59.120;37.898;2023-04-15T00:08:26;101709.56;;;0.02;29.98
71697;BME280;68167;59.120;37.898;2023-04-15T00:10:54;101725.25;;;0.02;29.85
71697;BME280;68167;59.120;37.898;2023-04-15T00:13:20;101734.06;;;0.10;29.96
71697;BME280;68167;59.120;37.898;2023-04-15T00:15:47;101724.69;;;0.08;29.93
71697;BME280;68167;59.120;37.898;2023-04-15T00:18:13;101670.34;;;-0.27;29.95
71697;BME280;68167;59.120;37.898;2023-04-15T00:20:40;101732.81;;;0.05;29.88
71697;BME280;68167;59.120;37.898;2023-04-15T00:23:06;101735.91;;;0.00;29.95
71697;BME280;68167;59.120;37.898;2023-04-15T00:25:33;101742.63;;;0.03;29.74
71697;BME280;68167;59.120;37.898;2023-04-15T00:28:00;101744.72;;;-0.01;29.83
71697;BME280;68167;59.120;37.898;2023-04-15T00:30:27;101684.41;;;-0.38;30.21
71697;BME280;68167;59.120;37.898;2023-04-15T00:32:53;101713.03;;;-0.17;30.06
71697;BME280;68167;59.120;37.898;2023-04-15T00:35:21;101746.38;;;0.00;29.69
71697;BME280;68167;59.120;37.898;2023-04-15T00:37:50;101729.97;;;-0.12;30.05
71697;BME280;68167;59.120;37.898;2023-04-15T00:40:17;101745.13;;;-0.06;29.86
71697;BME280;68167;59.120;37.898;2023-04-15T00:42:44;101752.69;;;-0.03;29.64
71697;BME280;68167;59.120;37.898;2023-04-15T00:45:11;101738.38;;;-0.08;30.06
71697;BME280;68167;59.120;37.898;2023-04-15T00:47:40;101750.91;;;-0.02;30.06
71697;BME280;68167;59.120;37.898;2023-04-15T00:50:07;101746.09;;;-0.07;30.10
71697;BME280;68167;59.120;37.898;2023-04-15T00:52:34;101734.38;;;-0.12;30.25
71697;BME280;68167;59.120;37.898;2023-04-15T00:55:01;101683.16;;;-0.44;30.42
71697;BME280;68167;59.120;37.898;2023-04-15T00:57:29;101740.84;;;-0.07;30.53
71697;BME280;68167;59.120;37.898;2023-04-15T00:59:57;101696.38;;;-0.36;30.34
71697;BME280;68167;59.120;37.898;2023-04-15T01:02:23;101747.06;;;-0.08;30.27
71697;BME280;68167;59.120;37.898;2023-04-15T01:04:50;101703.41;;;-0.36;30.06
71697;BME280;68167;59.120;37.898;2023-04-15T01:07:17;101709.88;;;-0.30;30.50
71697;BME280;68167;59.120;37.898;2023-04-15T01:09:44;101765.66;;;-0.01;30.28
71697;BME280;68167;59.120;37.898;2023-04-15T01:12:11;101751.06;;;-0.13;30.53
71697;BME280;68167;59.120;37.898;2023-04-15T01:14:40;101766.75;;;-0.04;30.70
71697;BME280;68167;59.120;37.898;2023-04-15T01:17:08;101767.16;;;-0.08;30.59
71697;BME280;68167;59.120;37.898;2023-04-15T01:19:38;101714.41;;;-0.42;30.50
71697;BME280;68167;59.120;37.898;2023-04-15T01:22:05;101716.75;;;-0.39;30.60
71697;BME280;68167;59.120;37.898;2023-04-15T01:24:32;101751.59;;;-0.19;30.83
71697;BME280;68167;59.120;37.898;2023-04-15T01:26:59;101773.09;;;-0.16;30.37
71697;BME280;68167;59.120;37.898;2023-04-15T01:29:26;101715.09;;;-0.50;30.96
71697;BME280;68167;59.120;37.898;2023-04-15T01:31:54;101765.94;;;-0.23;31.24
71697;BME280;68167;59.120;37.898;2023-04-15T01:34:39;101731.63;;;-0.49;30.86
71697;BME280;68167;59.120;37.898;2023-04-15T01:37:25;101776.38;;;-0.23;30.80
71697;BME280;68167;59.120;37.898;2023-04-15T01:39:51;101776.66;;;-0.26;30.92
71697;BME280;68167;59.120;37.898;2023-04-15T01:42:18;101737.81;;;-0.50;31.47
71697;BME280;68167;59.120;37.898;2023-04-15T01:44:46;101778.31;;;-0.35;31.13
71697;BME280;68167;59.120;37.898;2023-04-15T01:47:14;101786.44;;;-0.28;31.21
71697;BME280;68167;59.120;37.898;2023-04-15T01:49:42;101775.69;;;-0.45;31.51
71697;BME280;68167;59.120;37.898;2023-04-15T01:52:10;101746.03;;;-0.64;31.32
71697;BME280;68167;59.120;37.898;2023-04-15T01:54:37;101779.13;;;-0.44;31.60
71697;BME280;68167;59.120;37.898;2023-04-15T01:57:05;101792.75;;;-0.41;31.64
71697;BME280;68167;59.120;37.898;2023-04-15T01:59:33;101798.53;;;-0.37;31.06
71697;BME280;68167;59.120;37.898;2023-04-15T02:02:00;101779.78;;;-0.52;31.23
71697;BME280;68167;59.120;37.898;2023-04-15T02:04:28;101741.91;;;-0.77;31.53
71697;BME280;68167;59.120;37.898;2023-04-15T02:06:59;101788.31;;;-0.50;31.72
71697;BME280;68167;59.120;37.898;2023-04-15T02:09:27;101798.25;;;-0.44;31.76
71697;BME280;68167;59.120;37.898;2023-04-15T02:11:55;101743.41;;;-0.84;31.89
71697;BME280;68167;59.120;37.898;2023-04-15T02:14:22;101739.28;;;-0.86;32.01
71697;BME280;68167;59.120;37.898;2023-04-15T02:16:50;101801.78;;;-0.64;31.88
71697;BME280;68167;59.120;37.898;2023-04-15T02:19:18;101739.94;;;-0.94;32.23
71697;BME280;68167;59.120;37.898;2023-04-15T02:21:45;101762.53;;;-0.83;32.24
71697;BME280;68167;59.120;37.898;2023-04-15T02:24:13;101811.84;;;-0.59;32.69
71697;BME280;68167;59.120;37.898;2023-04-15T02:26:42;101787.19;;;-0.76;32.41
71697;BME280;68167;59.120;37.898;2023-04-15T02:29:09;101814.59;;;-0.71;32.59
71697;BME280;68167;59.120;37.898;2023-04-15T02:31:37;101749.81;;;-1.07;32.86
71697;BME280;68167;59.120;37.898;2023-04-15T02:34:06;101807.00;;;-0.74;32.85
71697;BME280;68167;59.120;37.898;2023-04-15T02:36:34;101814.59;;;-0.71;32.89
71697;BME280;68167;59.120;37.898;2023-04-15T02:39:02;101815.81;;;-0.75;33.12
71697;BME280;68167;59.120;37.898;2023-04-15T02:41:30;101817.72;;;-0.77;33.41
71697;BME280;68167;59.120;37.898;2023-04-15T02:43:58;101827.50;;;-0.79;33.54
71697;BME280;68167;59.120;37.898;2023-04-15T02:46:26;101828.31;;;-0.78;33.94
71697;BME280;68167;59.120;37.898;2023-04-15T02:48:54;101810.69;;;-0.86;33.50
71697;BME280;68167;59.120;37.898;2023-04-15T02:51:23;101798.97;;;-0.91;33.67
71697;BME280;68167;59.120;37.898;2023-04-15T02:53:52;101755.81;;;-1.16;33.66
71697;BME280;68167;59.120;37.898;2023-04-15T02:56:20;101831.50;;;-0.75;33.75
71697;BME280;68167;59.120;37.898;2023-04-15T02:58:49;101833.97;;;-0.73;34.02
71697;BME280;68167;59.120;37.898;2023-04-15T03:01:17;101823.91;;;-0.78;33.93
71697;BME280;68167;59.120;37.898;2023-04-15T03:03:47;101809.16;;;-0.88;33.93
71697;BME280;68167;59.120;37.898;2023-04-15T03:06:14;101799.22;;;-0.94;33.81
71697;BME280;68167;59.120;37.898;2023-04-15T03:08:42;101778.84;;;-1.01;33.73
71697;BME280;68167;59.120;37.898;2023-04-15T03:11:13;101823.41;;;-0.72;33.87
71697;BME280;68167;59.120;37.898;2023-04-15T03:13:42;101855.06;;;-0.55;33.31
71697;BME280;68167;59.120;37.898;2023-04-15T03:16:20;101843.09;;;-0.58;33.79
71697;BME280;68167;59.120;37.898;2023-04-15T03:18:48;101788.25;;;-0.88;33.61
71697;BME280;68167;59.120;37.898;2023-04-15T03:21:17;101814.03;;;-0.74;33.62
71697;BME280;68167;59.120;37.898;2023-04-15T03:23:48;101851.09;;;-0.50;33.49
71697;BME280;68167;59.120;37.898;2023-04-15T03:26:29;101852.50;;;-0.36;33.27
71697;BME280;68167;59.120;37.898;2023-04-15T03:29:01;101847.84;;;-0.32;33.33
71697;BME280;68167;59.120;37.898;2023-04-15T03:31:29;101853.38;;;-0.26;32.92
71697;BME280;68167;59.120;37.898;2023-04-15T03:33:57;101844.13;;;-0.30;33.09
71697;BME280;68167;59.120;37.898;2023-04-15T03:36:25;101808.84;;;-0.45;33.13
71697;BME280;68167;59.120;37.898;2023-04-15T03:38:53;101860.00;;;-0.12;32.79
71697;BME280;68167;59.120;37.898;2023-04-15T03:41:22;101866.22;;;-0.04;32.62
71697;BME280;68167;59.120;37.898;2023-04-15T03:43:50;101865.50;;;0.04;32.82
71697;BME280;68167;59.120;37.898;2023-04-15T03:46:18;101829.00;;;-0.17;32.39
71697;BME280;68167;59.120;37.898;2023-04-15T03:48:47;101869.78;;;0.15;32.70
71697;BME280;68167;59.120;37.898;2023-04-15T03:51:14;101878.63;;;0.23;32.56
71697;BME280;68167;59.120;37.898;2023-04-15T03:53:42;101845.66;;;0.11;32.67
71697;BME280;68167;59.120;37.898;2023-04-15T03:56:10;101877.25;;;0.29;32.30
71697;BME280;68167;59.120;37.898;2023-04-15T03:58:38;101825.56;;;0.02;32.59
71697;BME280;68167;59.120;37.898;2023-04-15T04:01:05;101885.38;;;0.36;31.96
71697;BME280;68167;59.120;37.898;2023-04-15T04:03:33;101866.63;;;0.30;32.13
71697;BME280;68167;59.120;37.898;2023-04-15T04:06:01;101827.06;;;0.05;32.14
71697;BME280;68167;59.120;37.898;2023-04-15T04:08:29;101896.69;;;0.46;32.38
71697;BME280;68167;59.120;37.898;2023-04-15T04:10:56;101883.44;;;0.38;31.38
71697;BME280;68167;59.120;37.898;2023-04-15T04:13:24;101887.44;;;0.42;31.66
71697;BME280;68167;59.120;37.898;2023-04-15T04:15:52;101898.75;;;0.52;31.54
71697;BME280;68167;59.120;37.898;2023-04-15T04:18:20;101900.25;;;0.54;31.79
71697;BME280;68167;59.120;37.898;2023-04-15T04:20:47;101902.88;;;0.54;31.58
71697;BME280;68167;59.120;37.898;2023-04-15T04:23:15;101893.91;;;0.57;30.86
71697;BME280;68167;59.120;37.898;2023-04-15T04:25:43;101796.78;;;-0.08;30.96
71697;BME280;68167;59.120;37.898;2023-04-15T04:28:11;101902.06;;;0.63;31.58
71697;BME280;68167;59.120;37.898;2023-04-15T04:30:39;101859.47;;;0.42;31.58
71697;BME280;68167;59.120;37.898;2023-04-15T04:33:07;101842.78;;;0.33;31.33
71697;BME280;68167;59.120;37.898;2023-04-15T04:35:34;101904.06;;;0.79;31.23
71697;BME280;68167;59.120;37.898;2023-04-15T04:38:03;101901.59;;;0.78;31.32
71697;BME280;68167;59.120;37.898;2023-04-15T04:40:31;101898.56;;;0.82;30.96
71697;BME280;68167;59.120;37.898;2023-04-15T04:42:59;101854.47;;;0.58;31.08
71697;BME280;68167;59.120;37.898;2023-04-15T04:45:27;101911.22;;;0.96;30.95
71697;BME280;68167;59.120;37.898;2023-04-15T04:47:55;101897.44;;;0.94;31.33
71697;BME280;68167;59.120;37.898;2023-04-15T04:50:22;101865.59;;;0.80;31.01
71697;BME280;68167;59.120;37.898;2023-04-15T04:52:50;101898.53;;;1.02;31.04
71697;BME280;68167;59.120;37.898;2023-04-15T04:55:18;101903.88;;;1.10;30.77
71697;BME280;68167;59.120;37.898;2023-04-15T04:57:46;101898.50;;;1.11;31.12
71697;BME280;68167;59.120;37.898;2023-04-15T05:00:14;101905.91;;;1.25;30.71
71697;BME280;68167;59.120;37.898;2023-04-15T05:02:41;101854.22;;;0.98;31.14
71697;BME280;68167;59.120;37.898;2023-04-15T05:05:10;101914.81;;;1.42;30.58
71697;BME280;68167;59.120;37.898;2023-04-15T05:07:38;101907.06;;;1.41;31.13
71697;BME280;68167;59.120;37.898;2023-04-15T05:10:06;101903.03;;;1.46;30.74
71697;BME280;68167;59.120;37.898;2023-04-15T05:12:35;101903.88;;;1.47;31.05
71697;BME280;68167;59.120;37.898;2023-04-15T05:15:05;101921.59;;;1.72;30.98
71697;BME280;68167;59.120;37.898;2023-04-15T05:17:33;101866.69;;;1.51;30.67
71697;BME280;68167;59.120;37.898;2023-04-15T05:20:02;101925.38;;;1.87;30.38
71697;BME280;68167;59.120;37.898;2023-04-15T05:22:30;101798.66;;;1.22;30.46
71697;BME280;68167;59.120;37.898;2023-04-15T05:24:58;101907.88;;;1.96;30.16
71697;BME280;68167;59.120;37.898;2023-04-15T05:27:26;101917.78;;;2.02;29.96
71697;BME280;68167;59.120;37.898;2023-04-15T05:29:53;101858.28;;;1.75;29.95
71697;BME280;68167;59.120;37.898;2023-04-15T05:32:22;101871.59;;;1.91;29.50
71697;BME280;68167;59.120;37.898;2023-04-15T05:34:50;101929.38;;;2.27;29.57
71697;BME280;68167;59.120;37.898;2023-04-15T05:37:18;101884.28;;;2.14;29.35
71697;BME280;68167;59.120;37.898;2023-04-15T05:39:47;101900.56;;;2.35;29.53
71697;BME280;68167;59.120;37.898;2023-04-15T05:42:15;101875.19;;;2.26;29.38
71697;BME280;68167;59.120;37.898;2023-04-15T05:44:43;101906.94;;;2.50;29.23
71697;BME280;68167;59.120;37.898;2023-04-15T05:47:11;101910.13;;;2.62;29.64
71697;BME280;68167;59.120;37.898;2023-04-15T05:49:39;101894.88;;;2.65;29.09
71697;BME280;68167;59.120;37.898;2023-04-15T05:52:06;101914.25;;;2.82;28.62
71697;BME280;68167;59.120;37.898;2023-04-15T05:54:34;101864.44;;;2.55;28.61
71697;BME280;68167;59.120;37.898;2023-04-15T05:57:02;101906.19;;;2.84;28.65
71697;BME280;68167;59.120;37.898;2023-04-15T05:59:30;101850.50;;;2.62;28.46
71697;BME280;68167;59.120;37.898;2023-04-15T06:01:58;101862.56;;;2.73;28.46
71697;BME280;68167;59.120;37.898;2023-04-15T06:04:26;101916.44;;;3.13;27.89
71697;BME280;68167;59.120;37.898;2023-04-15T06:06:53;101914.63;;;3.13;28.31
71697;BME280;68167;59.120;37.898;2023-04-15T06:09:21;101933.94;;;3.22;27.69
71697;BME280;68167;59.120;37.898;2023-04-15T06:11:50;101914.47;;;3.15;27.65
71697;BME280;68167;59.120;37.898;2023-04-15T06:14:18;101897.25;;;3.20;27.77
71697;BME280;68167;59.120;37.898;2023-04-15T06:16:46;101837.88;;;2.92;27.81
71697;BME280;68167;59.120;37.898;2023-04-15T06:19:13;101911.50;;;3.44;27.89
71697;BME280;68167;59.120;37.898;2023-04-15T06:21:42;101851.00;;;3.18;27.42
71697;BME280;68167;59.120;37.898;2023-04-15T06:24:11;101921.47;;;3.66;27.42
71697;BME280;68167;59.120;37.898;2023-04-15T06:26:39;101898.72;;;3.57;27.25
71697;BME280;68167;59.120;37.898;2023-04-15T06:29:06;101871.69;;;3.47;27.24
71697;BME280;68167;59.120;37.898;2023-04-15T06:31:34;101871.22;;;3.51;27.26
71697;BME280;68167;59.120;37.898;2023-04-15T06:34:02;101913.16;;;3.87;26.85
71697;BME280;68167;59.120;37.898;2023-04-15T06:36:30;101915.94;;;3.85;26.85
71697;BME280;68167;59.120;37.898;2023-04-15T06:38:58;101928.31;;;4.01;26.84
71697;BME280;68167;59.120;37.898;2023-04-15T06:41:26;101924.22;;;4.07;26.50
71697;BME280;68167;59.120;37.898;2023-04-15T06:43:54;101902.47;;;4.05;26.76
71697;BME280;68167;59.120;37.898;2023-04-15T06:46:24;101915.00;;;4.11;26.15
71697;BME280;68167;59.120;37.898;2023-04-15T06:48:54;101925.41;;;4.20;26.05
71697;BME280;68167;59.120;37.898;2023-04-15T06:51:22;101852.38;;;3.72;26.27
71697;BME280;68167;59.120;37.898;2023-04-15T06:53:50;101906.97;;;4.20;25.66
71697;BME280;68167;59.120;37.898;2023-04-15T06:56:18;101910.75;;;4.18;26.20
71697;BME280;68167;59.120;37.898;2023-04-15T06:58:46;101914.56;;;4.32;25.43
71697;BME280;68167;59.120;37.898;2023-04-15T07:01:13;101911.41;;;4.28;25.40
71697;BME280;68167;59.120;37.898;2023-04-15T07:03:41;101865.25;;;4.08;25.41
71697;BME280;68167;59.120;37.898;2023-04-15T07:06:09;101881.59;;;4.27;25.62
71697;BME280;68167;59.120;37.898;2023-04-15T07:08:37;101933.34;;;4.69;25.85
71697;BME280;68167;59.120;37.898;2023-04-15T07:11:06;101920.97;;;4.61;24.41
71697;BME280;68167;59.120;37.898;2023-04-15T07:13:33;101929.41;;;4.65;25.05
71697;BME280;68167;59.120;37.898;2023-04-15T07:16:01;101921.66;;;4.72;25.06
71697;BME280;68167;59.120;37.898;2023-04-15T07:18:29;101942.41;;;4.91;24.82
71697;BME280;68167;59.120;37.898;2023-04-15T07:20:57;101924.78;;;5.00;24.71
71697;BME280;68167;59.120;37.898;2023-04-15T07:23:25;101869.56;;;4.74;24.94
71697;BME280;68167;59.120;37.898;2023-04-15T07:25:52;101907.28;;;5.07;24.56
71697;BME280;68167;59.120;37.898;2023-04-15T07:28:20;101876.97;;;4.86;24.37
71697;BME280;68167;59.120;37.898;2023-04-15T07:30:48;101932.13;;;5.28;24.08
71697;BME280;68167;59.120;37.898;2023-04-15T07:33:16;101927.81;;;5.36;23.86
71697;BME280;68167;59.120;37.898;2023-04-15T07:35:43;101867.84;;;5.05;24.07
71697;BME280;68167;59.120;37.898;2023-04-15T07:38:11;101905.53;;;5.38;23.29
71697;BME280;68167;59.120;37.898;2023-04-15T07:40:40;101918.50;;;5.56;23.60
71697;BME280;68167;59.120;37.898;2023-04-15T07:43:08;101935.94;;;5.73;23.48
71697;BME280;68167;59.120;37.898;2023-04-15T07:45:36;101922.75;;;5.73;22.48
71697;BME280;68167;59.120;37.898;2023-04-15T07:48:04;101926.16;;;5.82;22.73
71697;BME280;68167;59.120;37.898;2023-04-15T07:50:33;101918.34;;;5.88;22.93
71697;BME280;68167;59.120;37.898;2023-04-15T07:53:00;101867.78;;;5.69;22.36
71697;BME280;68167;59.120;37.898;2023-04-15T07:55:28;101931.28;;;6.14;22.71
71697;BME280;68167;59.120;37.898;2023-04-15T07:57:57;101874.31;;;5.81;22.22
71697;BME280;68167;59.120;37.898;2023-04-15T08:00:24;101937.50;;;6.30;22.71
71697;BME280;68167;59.120;37.898;2023-04-15T08:02:53;101878.66;;;6.05;22.09
71697;BME280;68167;59.120;37.898;2023-04-15T08:05:21;101928.50;;;6.39;22.36
71697;BME280;68167;59.120;37.898;2023-04-15T08:07:48;101868.41;;;6.02;21.53
71697;BME280;68167;59.120;37.898;2023-04-15T08:10:17;101920.91;;;6.36;21.52
71697;BME280;68167;59.120;37.898;2023-04-15T08:12:44;101920.50;;;6.47;21.61
71697;BME280;68167;59.120;37.898;2023-04-15T08:15:15;101918.06;;;6.60;20.92
71697;BME280;68167;59.120;37.898;2023-04-15T08:17:44;101932.47;;;6.80;21.86
71697;BME280;68167;59.120;37.898;2023-04-15T08:20:11;101870.63;;;6.58;21.53
71697;BME280;68167;59.120;37.898;2023-04-15T08:22:39;101827.81;;;6.40;21.09
71697;BME280;68167;59.120;37.898;2023-04-15T08:25:08;101916.38;;;7.05;20.86
71697;BME280;68167;59.120;37.898;2023-04-15T08:27:36;101869.59;;;6.82;20.56
71697;BME280;68167;59.120;37.898;2023-04-15T08:30:05;101924.28;;;7.19;20.88
71697;BME280;68167;59.120;37.898;2023-04-15T08:32:33;101926.22;;;7.25;20.71
71697;BME280;68167;59.120;37.898;2023-04-15T08:35:00;101861.66;;;6.97;20.10
71697;BME280;68167;59.120;37.898;2023-04-15T08:37:28;101895.47;;;7.10;20.51
71697;BME280;68167;59.120;37.898;2023-04-15T08:39:56;101858.75;;;6.92;20.71
71697;BME280;68167;59.120;37.898;2023-04-15T08:42:30;101912.25;;;7.32;19.94
71697;BME280;68167;59.120;37.898;2023-04-15T08:44:59;101915.19;;;7.37;20.11
71697;BME280;68167;59.120;37.898;2023-04-15T08:47:30;101906.31;;;7.44;19.72
71697;BME280;68167;59.120;37.898;2023-04-15T08:49:58;101862.19;;;7.22;19.79
71697;BME280;68167;59.120;37.898;2023-04-15T08:52:30;101907.31;;;7.58;19.85
71697;BME280;68167;59.120;37.898;2023-04-15T08:54:59;101894.88;;;7.58;19.53
71697;BME280;68167;59.120;37.898;2023-04-15T08:57:28;101849.94;;;7.36;19.93
71697;BME280;68167;59.120;37.898;2023-04-15T08:59:56;101860.88;;;7.62;19.75
71697;BME280;68167;59.120;37.898;2023-04-15T09:02:24;101839.75;;;7.69;20.20
71697;BME280;68167;59.120;37.898;2023-04-15T09:04:53;101831.88;;;7.75;20.05
71697;BME280;68167;59.120;37.898;2023-04-15T09:07:21;101902.38;;;8.27;19.95
71697;BME280;68167;59.120;37.898;2023-04-15T09:09:49;101861.81;;;8.12;19.34
71697;BME280;68167;59.120;37.898;2023-04-15T09:12:17;101786.81;;;7.75;19.89
71697;BME280;68167;59.120;37.898;2023-04-15T09:14:45;101886.66;;;8.47;19.53
71697;BME280;68167;59.120;37.898;2023-04-15T09:17:18;101873.81;;;8.44;19.81
71697;BME280;68167;59.120;37.898;2023-04-15T09:19:46;101879.00;;;8.58;19.73
71697;BME280;68167;59.120;37.898;2023-04-15T09:22:14;101869.03;;;8.61;18.96
71697;BME280;68167;59.120;37.898;2023-04-15T09:24:42;101881.63;;;8.80;19.72
71697;BME280;68167;59.120;37.898;2023-04-15T09:27:10;101872.91;;;8.86;20.36
71697;BME280;68167;59.120;37.898;2023-04-15T09:29:40;101863.91;;;8.87;19.59
71697;BME280;68167;59.120;37.898;2023-04-15T09:32:12;101874.88;;;9.05;19.38
71697;BME280;68167;59.120;37.898;2023-04-15T09:34:42;101778.72;;;8.54;19.57
71697;BME280;68167;59.120;37.898;2023-04-15T09:37:09;101775.97;;;8.69;20.04
71697;BME280;68167;59.120;37.898;2023-04-15T09:39:50;101817.88;;;9.08;19.82
71697;BME280;68167;59.120;37.898;2023-04-15T09:42:19;101843.34;;;9.37;19.67
71697;BME280;68167;59.120;37.898;2023-04-15T09:44:53;101874.94;;;9.60;19.02
71697;BME280;68167;59.120;37.898;2023-04-15T09:47:31;101861.03;;;9.57;19.47
71697;BME280;68167;59.120;37.898;2023-04-15T09:49:59;101820.69;;;9.47;19.02
71697;BME280;68167;59.120;37.898;2023-04-15T09:52:28;101865.81;;;9.95;19.07
71697;BME280;68167;59.120;37.898;2023-04-15T09:54:57;101816.69;;;9.71;19.28
71697;BME280;68167;59.120;37.898;2023-04-15T09:57:33;101817.28;;;9.67;19.09
71697;BME280;68167;59.120;37.898;2023-04-15T10:00:05;101860.53;;;10.02;18.52
71697;BME280;68167;59.120;37.898;2023-04-15T10:02:37;101818.53;;;9.84;19.04
71697;BME280;68167;59.120;37.898;2023-04-15T10:05:06;101839.06;;;10.16;18.30
71697;BME280;68167;59.120;37.898;2023-04-15T10:07:37;101855.09;;;10.36;18.44
71697;BME280;68167;59.120;37.898;2023-04-15T10:10:07;101752.88;;;9.91;18.64
71697;BME280;68167;59.120;37.898;2023-04-15T10:12:40;101855.47;;;10.60;18.50
71697;BME280;68167;59.120;37.898;2023-04-15T10:15:14;101835.19;;;10.65;19.08
71697;BME280;68167;59.120;37.898;2023-04-15T10:17:43;101804.47;;;10.56;18.57
71697;BME280;68167;59.120;37.898;2023-04-15T10:20:12;101848.50;;;10.85;18.31
71697;BME280;68167;59.120;37.898;2023-04-15T10:22:41;101849.72;;;10.89;17.55
71697;BME280;68167;59.120;37.898;2023-04-15T10:25:11;101839.88;;;10.83;17.77
71697;BME280;68167;59.120;37.898;2023-04-15T10:27:41;101779.28;;;10.59;17.82
71697;BME280;68167;59.120;37.898;2023-04-15T10:30:09;101834.09;;;11.06;18.01
71697;BME280;68167;59.120;37.898;2023-04-15T10:32:38;101848.56;;;11.30;18.22
71697;BME280;68167;59.120;37.898;2023-04-15T10:35:07;101814.56;;;11.18;18.03
71697;BME280;68167;59.120;37.898;2023-04-15T10:37:37;101833.59;;;11.35;17.36
71697;BME280;68167;59.120;37.898;2023-04-15T10:40:31;101825.34;;;11.43;18.79
71697;BME280;68167;59.120;37.898;2023-04-15T10:43:00;101815.81;;;11.67;18.77
71697;BME280;68167;59.120;37.898;2023-04-15T10:45:36;101809.28;;;11.95;18.30
71697;BME280;68167;59.120;37.898;2023-04-15T10:48:06;101766.88;;;11.80;18.09
71697;BME280;68167;59.120;37.898;2023-04-15T10:50:36;101785.44;;;12.00;17.21
71697;BME280;68167;59.120;37.898;2023-04-15T10:53:04;101823.09;;;12.41;17.48
71697;BME280;68167;59.120;37.898;2023-04-15T10:55:34;101770.53;;;12.35;17.61
71697;BME280;68167;59.120;37.898;2023-04-15T10:58:02;101762.31;;;12.37;16.61
71697;BME280;68167;59.120;37.898;2023-04-15T11:00:31;101777.41;;;12.49;16.80
71697;BME280;68167;59.120;37.898;2023-04-15T11:03:07;101821.94;;;12.99;16.67
71697;BME280;68167;59.120;37.898;2023-04-15T11:08:11;101791.34;;;13.31;16.77
71697;BME280;68167;59.120;37.898;2023-04-15T11:15:45;101753.25;;;13.89;16.84
71697;BME280;68167;59.120;37.898;2023-04-15T11:18:20;101801.78;;;14.46;15.91
71697;BME280;68167;59.120;37.898;2023-04-15T11:20:49;101801.44;;;14.66;16.16
71697;BME280;68167;59.120;37.898;2023-04-15T11:23:19;101785.13;;;14.67;15.23
71697;BME280;68167;59.120;37.898;2023-04-15T11:25:47;101797.94;;;14.65;15.44
71697;BME280;68167;59.120;37.898;2023-04-15T11:28:15;101780.81;;;14.78;15.94
71697;BME280;68167;59.120;37.898;2023-04-15T11:30:42;101801.59;;;15.11;15.01
71697;BME280;68167;59.120;37.898;2023-04-15T11:33:11;101739.59;;;14.96;14.80
71697;BME280;68167;59.120;37.898;2023-04-15T11:35:40;101781.22;;;15.38;14.68
71697;BME280;68167;59.120;37.898;2023-04-15T11:38:10;101777.34;;;15.46;15.14
71697;BME280;68167;59.120;37.898;2023-04-15T11:40:39;101756.22;;;15.49;14.93
71697;BME280;68167;59.120;37.898;2023-04-15T11:43:10;101755.25;;;15.56;14.56
71697;BME280;68167;59.120;37.898;2023-04-15T11:45:55;101722.31;;;15.32;15.06
71697;BME280;68167;59.120;37.898;2023-04-15T11:48:27;101770.09;;;15.46;14.82
71697;BME280;68167;59.120;37.898;2023-04-15T11:50:59;101774.31;;;15.42;14.23
71697;BME280;68167;59.120;37.898;2023-04-15T11:53:42;101767.94;;;15.32;14.84
71697;BME280;68167;59.120;37.898;2023-04-15T11:56:19;101752.09;;;15.30;14.48
71697;BME280;68167;59.120;37.898;2023-04-15T11:58:47;101722.94;;;15.22;14.81
71697;BME280;68167;59.120;37.898;2023-04-15T12:01:16;101758.66;;;15.51;13.83
71697;BME280;68167;59.120;37.898;2023-04-15T12:03:44;101755.75;;;15.69;14.43
71697;BME280;68167;59.120;37.898;2023-04-15T12:14:01;101747.25;;;15.89;14.77
71697;BME280;68167;59.120;37.898;2023-04-15T12:16:29;101733.00;;;15.89;14.85
71697;BME280;68167;59.120;37.898;2023-04-15T12:18:57;101702.38;;;15.73;14.19
71697;BME280;68167;59.120;37.898;2023-04-15T12:21:26;101693.59;;;15.77;14.14
71697;BME280;68167;59.120;37.898;2023-04-15T12:23:55;101726.00;;;16.04;14.74
71697;BME280;68167;59.120;37.898;2023-04-15T12:29:04;101696.88;;;15.96;14.32
71697;BME280;68167;59.120;37.898;2023-04-15T12:31:32;101712.81;;;16.03;14.26
71697;BME280;68167;59.120;37.898;2023-04-15T12:33:59;101720.31;;;16.01;13.64
71697;BME280;68167;59.120;37.898;2023-04-15T12:36:26;101681.72;;;15.90;13.65
71697;BME280;68167;59.120;37.898;2023-04-15T12:38:53;101655.19;;;15.94;14.64
71697;BME280;68167;59.120;37.898;2023-04-15T12:41:20;101714.22;;;16.44;14.85
71697;BME280;68167;59.120;37.898;2023-04-15T12:43:47;101707.97;;;16.60;14.33
71697;BME280;68167;59.120;37.898;2023-04-15T12:46:14;101718.53;;;16.84;14.48
71697;BME280;68167;59.120;37.898;2023-04-15T12:48:41;101687.25;;;16.77;14.44
71697;BME280;68167;59.120;37.898;2023-04-15T12:51:07;101675.06;;;16.97;14.29
71697;BME280;68167;59.120;37.898;2023-04-15T12:53:34;101715.19;;;17.47;14.40
71697;BME280;68167;59.120;37.898;2023-04-15T12:56:01;101704.59;;;17.67;14.34
71697;BME280;68167;59.120;37.898;2023-04-15T12:58:27;101632.56;;;17.58;13.84
71697;BME280;68167;59.120;37.898;2023-04-15T13:00:54;101706.13;;;18.32;13.63
71697;BME280;68167;59.120;37.898;2023-04-15T13:03:22;101649.16;;;18.14;13.37
71697;BME280;68167;59.120;37.898;2023-04-15T13:05:48;101699.50;;;18.50;12.61
71697;BME280;68167;59.120;37.898;2023-04-15T13:08:15;101698.63;;;18.39;12.80
71697;BME280;68167;59.120;37.898;2023-04-15T13:10:42;101684.59;;;18.37;13.16